JZA034 CYCD-CYVR
Flight info
| Callsign | JZA034 |
|---|---|
| Flight time | 0h 9m |
| Altitude | 5000 |
| Route | YCD |
| Aircraft | DH8D/M-SDE2E3FGRY/H |
Departure
| Time | 2026-05-06 15:06 |
|---|---|
| Airport | Nanaimo Airport (CYCD) |
Arrival
| Time | 2026-05-06 15:15 |
|---|---|
| Airport | Vancouver International Airport (CYVR) |
| Time | Latitude | Longitude | Altitude | Speed | Heading |
|---|---|---|---|---|---|
| 2026-05-06 14:56 | 49.05342 | -123.87326 | 103 ft | 0 kts | 320° |
| 2026-05-06 15:03 | 49.05349 | -123.87328 | 103 ft | 4 kts | 11° |
| 2026-05-06 15:03 | 49.05325 | -123.87279 | 103 ft | 7 kts | 158° |
| 2026-05-06 15:03 | 49.05267 | -123.87263 | 104 ft | 12 kts | 180° |
| 2026-05-06 15:03 | 49.05138 | -123.87268 | 105 ft | 23 kts | 181° |
| 2026-05-06 15:04 | 49.04989 | -123.87264 | 106 ft | 19 kts | 181° |
| 2026-05-06 15:04 | 49.04867 | -123.87270 | 106 ft | 15 kts | 182° |
| 2026-05-06 15:04 | 49.04765 | -123.87274 | 107 ft | 13 kts | 182° |
| 2026-05-06 15:04 | 49.04660 | -123.87258 | 107 ft | 17 kts | 141° |
| 2026-05-06 15:05 | 49.04569 | -123.87121 | 106 ft | 16 kts | 124° |
| 2026-05-06 15:05 | 49.04606 | -123.87037 | 106 ft | 18 kts | 2° |
| 2026-05-06 15:05 | 49.05093 | -123.87022 | 105 ft | 117 kts | 1° |
| 2026-05-06 15:05 | 49.06060 | -123.86987 | 358 ft | 154 kts | 2° |
| 2026-05-06 15:06 | 49.07186 | -123.86926 | 982 ft | 173 kts | 2° |
| 2026-05-06 15:06 | 49.08443 | -123.86864 | 1437 ft | 193 kts | 1° |
| 2026-05-06 15:06 | 49.09817 | -123.86884 | 1939 ft | 207 kts | 2° |
| 2026-05-06 15:06 | 49.11301 | -123.86657 | 2418 ft | 220 kts | 6° |
| 2026-05-06 15:07 | 49.12845 | -123.86390 | 2974 ft | 228 kts | 5° |
| 2026-05-06 15:07 | 49.14409 | -123.86075 | 3528 ft | 235 kts | 11° |
| 2026-05-06 15:07 | 49.15861 | -123.84910 | 4080 ft | 243 kts | 42° |
| 2026-05-06 15:07 | 49.16726 | -123.82735 | 4604 ft | 243 kts | 71° |
| 2026-05-06 15:08 | 49.17153 | -123.80274 | 4828 ft | 238 kts | 76° |
| 2026-05-06 15:08 | 49.17555 | -123.77799 | 4926 ft | 240 kts | 76° |
| 2026-05-06 15:08 | 49.17946 | -123.75311 | 4938 ft | 243 kts | 76° |
| 2026-05-06 15:08 | 49.18341 | -123.72785 | 4952 ft | 246 kts | 76° |
| 2026-05-06 15:09 | 49.18733 | -123.70264 | 4852 ft | 250 kts | 76° |
| 2026-05-06 15:09 | 49.19140 | -123.67644 | 4592 ft | 252 kts | 76° |
| 2026-05-06 15:09 | 49.19535 | -123.65089 | 4322 ft | 249 kts | 76° |
| 2026-05-06 15:09 | 49.19929 | -123.62540 | 4057 ft | 243 kts | 76° |
| 2026-05-06 15:10 | 49.20310 | -123.60070 | 4012 ft | 236 kts | 76° |
| 2026-05-06 15:10 | 49.20688 | -123.57668 | 3967 ft | 233 kts | 76° |
| 2026-05-06 15:10 | 49.21066 | -123.55297 | 3956 ft | 228 kts | 76° |
| 2026-05-06 15:10 | 49.21437 | -123.52955 | 3947 ft | 224 kts | 76° |
| 2026-05-06 15:11 | 49.21806 | -123.50661 | 3956 ft | 220 kts | 76° |
| 2026-05-06 15:11 | 49.21985 | -123.48342 | 3891 ft | 221 kts | 91° |
| 2026-05-06 15:11 | 49.21748 | -123.46011 | 3736 ft | 225 kts | 99° |
| 2026-05-06 15:11 | 49.21521 | -123.43622 | 3453 ft | 228 kts | 97° |
| 2026-05-06 15:12 | 49.21297 | -123.41288 | 3115 ft | 221 kts | 99° |
| 2026-05-06 15:12 | 49.21042 | -123.38989 | 2652 ft | 219 kts | 99° |
| 2026-05-06 15:12 | 49.20799 | -123.36737 | 2212 ft | 215 kts | 99° |
| 2026-05-06 15:12 | 49.20558 | -123.34555 | 1975 ft | 202 kts | 102° |
| 2026-05-06 15:13 | 49.20329 | -123.32513 | 1642 ft | 188 kts | 102° |
| 2026-05-06 15:13 | 49.20123 | -123.30650 | 1357 ft | 168 kts | 102° |
| 2026-05-06 15:13 | 49.19938 | -123.29005 | 1153 ft | 145 kts | 101° |
| 2026-05-06 15:13 | 49.19775 | -123.27544 | 836 ft | 134 kts | 101° |
| 2026-05-06 15:14 | 49.19631 | -123.26208 | 697 ft | 128 kts | 99° |
| 2026-05-06 15:14 | 49.19476 | -123.24893 | 596 ft | 124 kts | 101° |
| 2026-05-06 15:14 | 49.19337 | -123.23617 | 451 ft | 121 kts | 100° |
| 2026-05-06 15:14 | 49.19189 | -123.22343 | 311 ft | 122 kts | 100° |
| 2026-05-06 15:15 | 49.19045 | -123.21078 | 154 ft | 122 kts | 100° |
| 2026-05-06 15:15 | 49.18901 | -123.19826 | 22 ft | 113 kts | 99° |
| 2026-05-06 15:15 | 49.18813 | -123.19041 | 20 ft | 46 kts | 100° |
| 2026-05-06 15:15 | 49.18769 | -123.18644 | 21 ft | 29 kts | 99° |
| 2026-05-06 15:16 | 49.18783 | -123.18390 | 20 ft | 19 kts | 72° |
| 2026-05-06 15:16 | 49.18863 | -123.18340 | 20 ft | 15 kts | 322° |
| 2026-05-06 15:16 | 49.18950 | -123.18442 | 21 ft | 15 kts | 322° |
| 2026-05-06 15:16 | 49.19039 | -123.18548 | 21 ft | 16 kts | 322° |
| 2026-05-06 15:17 | 49.19133 | -123.18659 | 20 ft | 17 kts | 322° |
| 2026-05-06 15:17 | 49.19239 | -123.18726 | 20 ft | 17 kts | 5° |
| 2026-05-06 15:17 | 49.19352 | -123.18700 | 20 ft | 13 kts | 9° |
| 2026-05-06 15:17 | 49.19404 | -123.18640 | 20 ft | 7 kts | 95° |
| 2026-05-06 15:18 | 49.19398 | -123.18591 | 20 ft | 4 kts | 99° |
| 2026-05-06 15:18 | 49.19389 | -123.18518 | 20 ft | 5 kts | 101° |
| 2026-05-06 15:18 | 49.19384 | -123.18476 | 20 ft | 4 kts | 98° |
| 2026-05-06 15:18 | 49.19401 | -123.18422 | 20 ft | 6 kts | 47° |
| 2026-05-06 15:19 | 49.19414 | -123.18401 | 20 ft | 0 kts | 47° |